createdAt,value
2022-08-11T00:01:15.789Z,1.90
2022-08-11T00:03:48.598Z,2.22
2022-08-11T00:06:24.834Z,2.00
2022-08-11T00:08:54.361Z,1.75
2022-08-11T00:11:26.422Z,1.73
2022-08-11T00:13:56.129Z,1.70
2022-08-11T00:16:26.438Z,1.63
2022-08-11T00:18:59.779Z,1.95
2022-08-11T00:22:02.908Z,2.20
2022-08-11T00:24:20.341Z,1.90
2022-08-11T00:26:52.936Z,1.67
2022-08-11T00:29:23.125Z,1.70
2022-08-11T00:31:53.340Z,1.70
2022-08-11T00:34:27.914Z,1.80
2022-08-11T00:37:01.214Z,2.00
2022-08-11T00:39:33.003Z,1.98
2022-08-11T00:42:15.275Z,1.85
2022-08-11T00:44:58.804Z,1.60
2022-08-11T00:47:41.291Z,1.83
2022-08-11T00:50:25.716Z,1.70
2022-08-11T00:53:27.217Z,1.70
2022-08-11T00:56:36.279Z,1.90
2022-08-11T00:59:35.555Z,1.75
2022-08-11T01:02:19.397Z,1.80
2022-08-11T01:05:39.074Z,1.60
2022-08-11T01:08:53.539Z,1.77
2022-08-11T01:11:55.243Z,2.05
2022-08-11T01:14:54.458Z,1.85
2022-08-11T01:18:04.331Z,2.10
2022-08-11T01:21:04.706Z,1.70
2022-08-11T01:24:10.983Z,1.85
2022-08-11T01:27:18.849Z,2.00
2022-08-11T01:30:25.294Z,1.60
2022-08-11T01:33:26.778Z,1.52
2022-08-11T01:36:30.312Z,1.70
2022-08-11T01:39:34.720Z,1.52
2022-08-11T01:42:40.931Z,1.58
2022-08-11T01:45:22.487Z,1.85
2022-08-11T01:48:05.125Z,1.85
2022-08-11T01:50:46.890Z,2.30
2022-08-11T01:53:28.547Z,1.60
2022-08-11T01:56:10.587Z,1.98
2022-08-11T01:58:45.665Z,2.22
2022-08-11T02:01:29.645Z,1.92
2022-08-11T02:04:07.300Z,1.83
2022-08-11T02:06:58.567Z,1.77
2022-08-11T02:09:49.678Z,1.85
2022-08-11T02:12:35.903Z,2.30
2022-08-11T02:15:14.098Z,2.15
2022-08-11T02:17:52.627Z,2.10
2022-08-11T02:20:45.278Z,2.05
2022-08-11T02:24:05.130Z,1.98
2022-08-11T02:26:41.467Z,1.70
2022-08-11T02:29:18.172Z,1.67
2022-08-11T02:32:28.707Z,2.17
2022-08-11T02:35:05.492Z,2.00
2022-08-11T02:37:45.555Z,1.90
2022-08-11T02:40:23.089Z,2.00
2022-08-11T02:43:04.445Z,2.35
2022-08-11T02:45:55.586Z,2.88
2022-08-11T02:48:52.563Z,2.33
2022-08-11T02:51:31.040Z,2.20
2022-08-11T02:54:07.458Z,2.22
2022-08-11T02:56:50.255Z,2.53
2022-08-11T02:59:45.728Z,2.05
2022-08-11T03:02:28.183Z,2.22
2022-08-11T03:05:17.747Z,2.67
2022-08-11T03:08:04.825Z,2.00
2022-08-11T03:10:43.563Z,2.33
2022-08-11T03:13:36.805Z,2.47
2022-08-11T03:16:34.486Z,2.05
2022-08-11T03:19:13.158Z,2.38
2022-08-11T03:22:03.120Z,2.58
2022-08-11T03:24:41.973Z,1.85
2022-08-11T03:27:13.070Z,2.08
2022-08-11T03:29:59.675Z,2.17
2022-08-11T03:32:33.987Z,1.95
2022-08-11T03:35:03.504Z,2.20
2022-08-11T03:37:52.930Z,2.00
2022-08-11T03:41:49.362Z,2.17
2022-08-11T03:44:05.572Z,2.03
2022-08-11T03:46:49.121Z,1.90
2022-08-11T03:49:32.331Z,2.20
2022-08-11T03:52:13.319Z,2.30
2022-08-11T03:54:51.815Z,1.90
2022-08-11T03:58:16.626Z,1.90
2022-08-11T04:01:08.968Z,1.98
2022-08-11T04:04:02.333Z,1.83
2022-08-11T04:07:05.158Z,2.13
2022-08-11T04:10:08.467Z,2.03
2022-08-11T04:13:32.255Z,2.30
2022-08-11T04:16:30.632Z,2.58
2022-08-11T04:19:31.422Z,2.10
2022-08-11T04:22:23.868Z,2.13
2022-08-11T04:25:31.033Z,2.33
2022-08-11T04:28:49.915Z,1.95
2022-08-11T04:31:50.754Z,2.17
2022-08-11T04:34:53.178Z,2.30
2022-08-11T04:37:44.830Z,2.08
2022-08-11T04:41:16.830Z,1.88
2022-08-11T04:44:21.547Z,2.10
2022-08-11T04:48:03.616Z,1.90
2022-08-11T04:51:00.679Z,2.10
2022-08-11T04:54:09.051Z,1.98
2022-08-11T04:56:58.090Z,2.08
2022-08-11T05:00:11.778Z,2.35
2022-08-11T05:03:15.455Z,2.38
2022-08-11T05:06:11.046Z,2.47
2022-08-11T05:09:15.236Z,2.08
2022-08-11T05:12:13.011Z,2.60
2022-08-11T05:15:06.984Z,2.67
2022-08-11T05:17:59.593Z,2.67
2022-08-11T05:20:46.685Z,2.35
2022-08-11T05:23:33.191Z,2.47
2022-08-11T05:26:46.698Z,2.80
2022-08-11T05:29:44.398Z,2.70
2022-08-11T05:32:34.990Z,3.08
2022-08-11T05:35:07.590Z,2.70
2022-08-11T05:37:57.681Z,2.70
2022-08-11T05:40:50.930Z,2.85
2022-08-11T05:44:19.817Z,2.28
2022-08-11T05:46:49.443Z,2.42
2022-08-11T05:49:35.922Z,2.40
2022-08-11T05:52:33.957Z,3.10
2022-08-11T05:55:29.130Z,2.72
2022-08-11T05:57:58.971Z,2.40
2022-08-11T06:00:29.143Z,2.45
2022-08-11T06:03:02.462Z,2.40
2022-08-11T06:05:38.554Z,2.40
2022-08-11T06:08:13.857Z,2.38
2022-08-11T06:10:44.920Z,2.42
2022-08-11T06:13:18.587Z,2.55
2022-08-11T06:15:49.924Z,2.50
2022-08-11T06:18:19.536Z,2.67
2022-08-11T06:20:49.640Z,2.35
2022-08-11T06:23:21.113Z,2.80
2022-08-11T06:25:51.591Z,2.20
2022-08-11T06:28:22.704Z,2.22
2022-08-11T06:30:52.898Z,2.53
2022-08-11T06:33:32.770Z,2.63
2022-08-11T06:36:08.315Z,2.33
2022-08-11T06:38:57.928Z,2.40
2022-08-11T06:41:32.214Z,2.45
2022-08-11T06:44:21.583Z,2.20
2022-08-11T06:46:56.468Z,1.90
2022-08-11T06:49:53.057Z,2.15
2022-08-11T06:52:34.630Z,1.98
2022-08-11T06:55:12.638Z,2.13
2022-08-11T06:58:14.392Z,1.80
2022-08-11T07:00:43.305Z,1.90
2022-08-11T07:03:18.018Z,2.42
2022-08-11T07:05:50.033Z,2.20
2022-08-11T07:09:09.344Z,2.25
2022-08-11T07:12:19.925Z,1.58
2022-08-11T07:15:11.445Z,2.00
2022-08-11T07:17:50.130Z,2.70
2022-08-11T07:20:38.277Z,2.05
2022-08-11T07:23:28.247Z,2.33
2022-08-11T07:26:18.311Z,1.67
2022-08-11T07:28:59.633Z,1.85
2022-08-11T07:31:36.531Z,1.65
2022-08-11T07:34:18.185Z,2.00
2022-08-11T07:36:53.007Z,1.70
2022-08-11T07:39:23.329Z,1.73
2022-08-11T07:41:54.326Z,2.03
2022-08-11T07:44:29.349Z,1.95
2022-08-11T07:47:19.310Z,1.88
2022-08-11T07:50:09.156Z,1.90
2022-08-11T07:52:41.045Z,1.95
2022-08-11T07:55:14.914Z,1.92
2022-08-11T07:58:19.923Z,1.95
2022-08-11T08:01:10.303Z,1.80
2022-08-11T08:04:03.493Z,2.08
2022-08-11T08:06:53.103Z,1.90
2022-08-11T08:09:41.681Z,1.92
2022-08-11T08:12:28.298Z,1.80
2022-08-11T08:15:15.539Z,1.90
2022-08-11T08:18:08.323Z,1.80
2022-08-11T08:20:50.520Z,1.80
2022-08-11T08:23:33.993Z,1.83
2022-08-11T08:26:27.016Z,1.80
2022-08-11T08:29:18.830Z,1.70
2022-08-11T08:31:48.540Z,1.98
2022-08-11T08:34:18.150Z,1.60
2022-08-11T08:36:48.682Z,1.92
2022-08-11T08:39:22.232Z,1.95
2022-08-11T08:41:56.154Z,1.60
2022-08-11T08:44:44.961Z,1.80
2022-08-11T08:47:38.786Z,1.70
2022-08-11T08:50:16.288Z,1.83
2022-08-11T08:52:59.791Z,1.63
2022-08-11T08:55:30.402Z,1.60
2022-08-11T08:58:01.287Z,1.58
2022-08-11T09:00:41.643Z,2.10
2022-08-11T09:03:38.554Z,1.40
2022-08-11T09:06:01.327Z,1.60
2022-08-11T09:08:33.319Z,1.70
2022-08-11T09:11:20.546Z,1.55
2022-08-11T09:14:04.808Z,1.77
2022-08-11T09:16:37.457Z,1.52
2022-08-11T09:19:06.849Z,1.73
2022-08-11T09:21:48.500Z,1.70
2022-08-11T09:24:35.873Z,1.50
2022-08-11T09:27:08.622Z,1.77
2022-08-11T09:29:40.313Z,1.75
2022-08-11T09:32:09.029Z,1.70
2022-08-11T09:34:40.905Z,1.52
2022-08-11T09:37:54.309Z,1.50
2022-08-11T09:40:30.198Z,1.67
2022-08-11T09:43:17.503Z,1.73
2022-08-11T09:45:51.731Z,1.58
2022-08-11T09:48:21.809Z,1.70
2022-08-11T09:50:51.981Z,1.70
2022-08-11T09:53:36.511Z,1.63
2022-08-11T09:56:23.450Z,1.70
2022-08-11T09:58:52.721Z,1.45
2022-08-11T10:01:29.705Z,1.35
2022-08-11T10:04:01.744Z,1.60
2022-08-11T10:06:54.385Z,2.10
2022-08-11T10:09:25.551Z,1.45
2022-08-11T10:11:58.888Z,1.90
2022-08-11T10:14:46.816Z,1.90
2022-08-11T10:17:18.934Z,1.55
2022-08-11T10:20:05.518Z,1.52
2022-08-11T10:22:52.944Z,1.65
2022-08-11T10:25:40.332Z,1.80
2022-08-11T10:28:28.459Z,1.40
2022-08-11T10:31:17.457Z,1.48
2022-08-11T10:34:03.793Z,1.38
2022-08-11T10:36:34.999Z,1.65
2022-08-11T10:39:06.030Z,1.40
2022-08-11T10:42:06.383Z,1.25
2022-08-11T10:44:39.931Z,1.80
2022-08-11T10:47:27.063Z,1.70
2022-08-11T10:50:15.964Z,1.65
2022-08-11T10:53:03.944Z,1.20
2022-08-11T10:55:50.190Z,1.42
2022-08-11T10:58:37.827Z,1.70
2022-08-11T11:01:06.351Z,1.50
2022-08-11T11:03:37.314Z,1.30
2022-08-11T11:06:28.791Z,1.40
2022-08-11T11:09:06.489Z,1.40
2022-08-11T11:11:58.198Z,1.20
2022-08-11T11:14:56.534Z,1.50
2022-08-11T11:17:49.437Z,1.58
2022-08-11T11:20:36.563Z,1.73
2022-08-11T11:23:17.825Z,1.60
2022-08-11T11:26:11.327Z,1.50
2022-08-11T11:29:20.408Z,1.40
2022-08-11T11:32:11.282Z,1.50
2022-08-11T11:35:16.805Z,1.50
2022-08-11T11:38:03.439Z,1.70
2022-08-11T11:40:37.154Z,1.55
2022-08-11T11:43:06.482Z,1.60
2022-08-11T11:45:35.213Z,1.55
2022-08-11T11:48:04.691Z,1.70
2022-08-11T11:50:35.837Z,1.33
2022-08-11T11:53:07.527Z,1.27
2022-08-11T11:55:37.772Z,1.60
2022-08-11T11:58:24.772Z,1.60
2022-08-11T12:01:12.541Z,1.40
2022-08-11T12:03:41.676Z,1.50
2022-08-11T12:06:14.632Z,1.38
2022-08-11T12:08:44.897Z,1.30
2022-08-11T12:11:32.996Z,1.40
2022-08-11T12:14:10.379Z,1.40
2022-08-11T12:16:42.378Z,1.10
2022-08-11T12:19:13.186Z,1.30
2022-08-11T12:22:04.488Z,1.42
2022-08-11T12:24:53.157Z,1.17
2022-08-11T12:27:39.126Z,1.38
2022-08-11T12:30:09.863Z,1.25
2022-08-11T12:32:41.139Z,1.30
2022-08-11T12:35:11.843Z,1.27
2022-08-11T12:37:43.739Z,1.45
2022-08-11T12:40:43.493Z,1.40
2022-08-11T12:43:42.069Z,1.33
2022-08-11T12:46:13.005Z,1.27
2022-08-11T12:49:04.258Z,1.30
2022-08-11T12:52:11.803Z,1.30
2022-08-11T12:54:59.349Z,1.40
2022-08-11T12:57:49.451Z,1.35
2022-08-11T13:00:37.966Z,1.58
2022-08-11T13:03:26.625Z,1.10
2022-08-11T13:05:57.494Z,1.27
2022-08-11T13:08:28.436Z,1.42
2022-08-11T13:11:17.945Z,1.38
2022-08-11T13:13:54.377Z,1.23
2022-08-11T13:16:29.579Z,1.40
2022-08-11T13:19:01.718Z,1.30
2022-08-11T13:21:31.152Z,1.23
2022-08-11T13:24:03.090Z,1.05
2022-08-11T13:26:47.751Z,1.50
2022-08-11T13:29:22.496Z,1.05
2022-08-11T13:31:54.129Z,1.60
2022-08-11T13:34:25.714Z,1.20
2022-08-11T13:36:56.462Z,1.40
2022-08-11T13:39:28.001Z,1.42
2022-08-11T13:41:59.531Z,1.52
2022-08-11T13:44:30.567Z,1.17
2022-08-11T13:47:03.954Z,1.40
2022-08-11T13:49:33.552Z,1.40
2022-08-11T13:52:02.614Z,1.20
2022-08-11T13:54:34.198Z,1.45
2022-08-11T13:57:09.095Z,1.30
2022-08-11T13:59:51.790Z,1.20
2022-08-11T14:02:30.685Z,1.20
2022-08-11T14:05:07.158Z,1.20
2022-08-11T14:07:39.623Z,1.00
2022-08-11T14:10:10.295Z,1.20
2022-08-11T14:12:58.749Z,1.30
2022-08-11T14:15:32.258Z,1.30
2022-08-11T14:18:06.940Z,1.25
2022-08-11T14:20:55.898Z,1.33
2022-08-11T14:23:29.317Z,1.20
2022-08-11T14:26:15.910Z,1.13
2022-08-11T14:28:45.632Z,1.17
2022-08-11T14:31:15.906Z,1.40
2022-08-11T14:34:00.322Z,1.30
2022-08-11T14:36:33.140Z,1.30
2022-08-11T14:39:05.468Z,1.13
2022-08-11T14:42:10.448Z,1.58
2022-08-11T14:45:03.688Z,1.30
2022-08-11T14:47:35.207Z,1.20
2022-08-11T14:50:12.298Z,1.20
2022-08-11T14:52:47.050Z,1.40
2022-08-11T14:55:33.755Z,1.30
2022-08-11T14:58:03.402Z,1.40
2022-08-11T15:00:33.554Z,1.35
2022-08-11T15:03:10.727Z,1.27
2022-08-11T15:05:56.287Z,1.30
2022-08-11T15:08:42.696Z,1.20
2022-08-11T15:11:26.755Z,1.27
2022-08-11T15:13:57.376Z,1.35
2022-08-11T15:16:45.374Z,1.20
2022-08-11T15:19:16.089Z,1.27
2022-08-11T15:22:03.210Z,1.40
2022-08-11T15:24:31.511Z,1.20
2022-08-11T15:27:19.221Z,1.48
2022-08-11T15:30:06.705Z,1.40
2022-08-11T15:32:53.431Z,1.27
2022-08-11T15:35:39.952Z,1.08
2022-08-11T15:38:15.051Z,1.23
2022-08-11T15:41:02.305Z,1.02
2022-08-11T15:43:54.330Z,1.38
2022-08-11T15:46:29.671Z,1.40
2022-08-11T15:49:00.665Z,1.40
2022-08-11T15:51:34.996Z,1.30
2022-08-11T15:54:09.677Z,1.17
2022-08-11T15:56:42.319Z,1.08
2022-08-11T15:59:40.938Z,1.30
2022-08-11T16:02:32.353Z,1.40
2022-08-11T16:05:05.097Z,1.30
2022-08-11T16:07:40.417Z,1.48
2022-08-11T16:10:15.614Z,1.70
2022-08-11T16:13:21.426Z,1.20
2022-08-11T16:16:10.843Z,1.27
2022-08-11T16:18:47.192Z,1.23
2022-08-11T16:21:26.131Z,1.42
2022-08-11T16:24:05.885Z,1.38
2022-08-11T16:27:11.277Z,1.50
2022-08-11T16:29:31.774Z,1.27
2022-08-11T16:32:21.108Z,1.50
2022-08-11T16:35:12.981Z,1.00
2022-08-11T16:38:00.634Z,1.15
2022-08-11T16:40:29.571Z,1.35
2022-08-11T16:43:18.275Z,1.13
2022-08-11T16:46:05.053Z,1.60
2022-08-11T16:48:38.251Z,1.02
2022-08-11T16:51:08.297Z,1.30
2022-08-11T16:54:03.849Z,1.45
2022-08-11T16:56:30.654Z,1.15
2022-08-11T16:59:16.584Z,1.30
2022-08-11T17:01:53.400Z,1.30
2022-08-11T17:05:05.039Z,1.10
2022-08-11T17:07:51.536Z,1.35
2022-08-11T17:10:53.271Z,1.20
2022-08-11T17:13:29.600Z,0.98
2022-08-11T17:16:09.346Z,1.40
2022-08-11T17:18:44.650Z,1.55
2022-08-11T17:21:16.642Z,1.10
2022-08-11T17:23:47.139Z,1.50
2022-08-11T17:26:20.183Z,1.10
2022-08-11T17:28:51.854Z,1.30
2022-08-11T17:31:40.951Z,1.30
2022-08-11T17:34:27.837Z,1.10
2022-08-11T17:36:57.361Z,1.17
2022-08-11T17:39:30.289Z,1.35
2022-08-11T17:42:18.635Z,1.50
2022-08-11T17:45:05.608Z,1.30
2022-08-11T17:47:53.255Z,1.42
2022-08-11T17:50:22.245Z,1.33
2022-08-11T17:53:09.020Z,1.30
2022-08-11T17:55:57.868Z,1.25
2022-08-11T17:58:45.606Z,1.20
2022-08-11T18:01:14.430Z,1.10
2022-08-11T18:03:53.240Z,1.25
2022-08-11T18:06:34.770Z,1.60
2022-08-11T18:09:24.576Z,1.40
2022-08-11T18:12:13.051Z,1.40
2022-08-11T18:15:02.999Z,1.33
2022-08-11T18:17:49.165Z,1.58
2022-08-11T18:20:37.341Z,1.30
2022-08-11T18:23:41.679Z,1.40
2022-08-11T18:26:36.776Z,1.52
2022-08-11T18:29:26.002Z,1.23
2022-08-11T18:32:21.235Z,1.40
2022-08-11T18:35:11.467Z,1.27
2022-08-11T18:38:03.909Z,1.60
2022-08-11T18:40:50.677Z,1.23
2022-08-11T18:43:39.950Z,1.75
2022-08-11T18:46:28.655Z,1.30
2022-08-11T18:49:20.507Z,1.58
2022-08-11T18:52:11.702Z,1.20
2022-08-11T18:55:04.617Z,1.48
2022-08-11T18:57:55.121Z,1.45
2022-08-11T19:00:42.918Z,1.42
2022-08-11T19:03:30.859Z,1.23
2022-08-11T19:06:39.171Z,1.40
2022-08-11T19:09:28.914Z,1.48
2022-08-11T19:12:16.990Z,1.50
2022-08-11T19:15:04.768Z,1.63
2022-08-11T19:17:54.210Z,1.85
2022-08-11T19:20:43.710Z,2.30
2022-08-11T19:23:36.491Z,2.17
2022-08-11T19:26:23.133Z,2.00
2022-08-11T19:30:02.118Z,1.90
2022-08-11T19:32:18.360Z,1.98
2022-08-11T19:35:04.284Z,2.10
2022-08-11T19:37:52.338Z,1.92
2022-08-11T19:40:40.248Z,2.33
2022-08-11T19:43:26.971Z,2.63
2022-08-11T19:46:17.514Z,2.10
2022-08-11T19:49:04.973Z,1.90
2022-08-11T19:51:53.960Z,1.98
2022-08-11T19:54:42.552Z,1.95
2022-08-11T19:57:28.906Z,1.58
2022-08-11T20:00:15.628Z,1.67
2022-08-11T20:03:08.712Z,1.65
2022-08-11T20:05:59.963Z,1.77
2022-08-11T20:08:48.622Z,1.80
2022-08-11T20:11:36.230Z,2.00
2022-08-11T20:14:23.749Z,1.45
2022-08-11T20:17:12.108Z,1.98
2022-08-11T20:22:49.640Z,1.70
2022-08-11T20:25:37.173Z,1.65
2022-08-11T20:28:25.202Z,1.55
2022-08-11T20:31:13.091Z,1.73
2022-08-11T20:34:00.669Z,1.50
2022-08-11T20:36:54.553Z,1.60
2022-08-11T20:39:43.374Z,1.45
2022-08-11T20:42:31.346Z,1.50
2022-08-11T20:45:23.342Z,1.50
2022-08-11T20:48:14.694Z,1.58
2022-08-11T20:51:06.209Z,1.92
2022-08-11T20:53:56.565Z,1.60
2022-08-11T20:56:46.321Z,1.30
2022-08-11T20:59:33.272Z,1.58
2022-08-11T21:02:31.091Z,1.42
2022-08-11T21:05:19.509Z,1.75
2022-08-11T21:08:25.509Z,1.85
2022-08-11T21:11:14.563Z,1.70
2022-08-11T21:14:16.206Z,1.83
2022-08-11T21:17:27.151Z,1.48
2022-08-11T21:20:21.157Z,1.55
2022-08-11T21:23:12.319Z,1.52
2022-08-11T21:26:16.097Z,1.52
2022-08-11T21:29:02.745Z,1.80
2022-08-11T21:31:51.823Z,1.60
2022-08-11T21:34:39.695Z,1.85
2022-08-11T21:37:27.956Z,1.80
2022-08-11T21:40:17.595Z,1.90
2022-08-11T21:43:07.066Z,1.25
2022-08-11T21:45:55.395Z,1.67
2022-08-11T21:48:43.965Z,1.70
2022-08-11T21:51:30.278Z,1.55
2022-08-11T21:54:16.891Z,1.75
2022-08-11T21:57:04.732Z,1.60
2022-08-11T22:00:00.600Z,1.65
2022-08-11T22:02:53.222Z,1.50
2022-08-11T22:05:40.559Z,1.60
2022-08-11T22:08:28.194Z,1.73
2022-08-11T22:11:15.261Z,1.85
2022-08-11T22:14:08.082Z,1.60
2022-08-11T22:16:55.857Z,1.95
2022-08-11T22:19:43.186Z,2.25
2022-08-11T22:22:31.992Z,2.00
2022-08-11T22:25:18.735Z,1.67
2022-08-11T22:28:06.742Z,1.70
2022-08-11T22:30:52.757Z,2.17
2022-08-11T22:34:02.374Z,2.25
2022-08-11T22:36:46.983Z,1.90
2022-08-11T22:39:35.369Z,1.73
2022-08-11T22:42:30.150Z,1.77
2022-08-11T22:45:19.709Z,1.52
2022-08-11T22:48:06.973Z,1.90
2022-08-11T22:50:55.530Z,1.60
2022-08-11T22:53:58.599Z,1.90
2022-08-11T22:56:46.272Z,1.52
2022-08-11T22:59:33.211Z,1.50
2022-08-11T23:02:20.220Z,1.60
2022-08-11T23:05:07.947Z,1.77
2022-08-11T23:07:57.209Z,1.60
2022-08-11T23:10:43.202Z,1.67
2022-08-11T23:13:29.533Z,1.55
2022-08-11T23:16:15.656Z,1.48
2022-08-11T23:19:03.276Z,1.50
2022-08-11T23:21:50.714Z,1.70
2022-08-11T23:24:40.216Z,1.50
2022-08-11T23:27:28.793Z,1.60
2022-08-11T23:30:18.846Z,1.60
2022-08-11T23:33:07.535Z,1.60
2022-08-11T23:35:55.510Z,1.65
2022-08-11T23:38:45.568Z,1.73
2022-08-11T23:41:34.145Z,1.67
2022-08-11T23:44:21.111Z,1.77
2022-08-11T23:47:08.716Z,1.75
2022-08-11T23:49:56.336Z,1.60
2022-08-11T23:52:45.643Z,1.83
2022-08-11T23:55:32.210Z,1.75
2022-08-11T23:58:19.857Z,1.70
